Time;durP1;ratioP1;P1;durP2;ratioP2;P2;SDS_P1;SDS_P2;PMS_P1;PMS_P2;Temp;Humidity;BMP_temperature;BMP_pressure;BME280_temperature;BME280_humidity;BME280_pressure;Samples;Min_cycle;Max_cycle;Signal;HPM_P1;HPM_P2
2022/02/09 00:07:51;;;;;;;;;16.25;14.00;;;;;;;;5054452;28;46014;-71
2022/02/09 00:10:16;;;;;;;;;14.75;13.25;;;;;;;;5054848;28;45418;-70
2022/02/09 00:15:36;;;;;;;;;17.75;15.50;;;;;;;;5056002;28;45362;-70
2022/02/09 00:21:02;;;;;;;;;16.50;14.75;;;;;;;;5058101;28;45465;-70
2022/02/09 00:30:09;;;;;;;;;15.25;13.75;;;;;;;;5054240;28;46217;-71
2022/02/09 01:39:19;;;;;;;;;10.50;10.50;;;;;;;;5020420;28;45536;-70
2022/02/09 01:57:46;;;;;;;;;9.00;9.00;;;;;;;;5025974;28;45427;-70
2022/02/09 02:00:11;;;;;;;;;11.00;9.00;;;;;;;;5030327;28;45479;-69
2022/02/09 02:02:37;;;;;;;;;10.25;8.75;;;;;;;;5030501;28;45472;-69
2022/02/09 02:05:02;;;;;;;;;6.50;6.00;;;;;;;;5030702;28;45415;-70
2022/02/09 02:07:43;;;;;;;;;9.25;8.25;;;;;;;;5030273;28;45381;-70
2022/02/09 02:10:11;;;;;;;;;8.25;8.25;;;;;;;;5038917;28;45632;-69
2022/02/09 02:18:07;;;;;;;;;12.50;8.25;;;;;;;;5037420;28;45531;-70
2022/02/09 02:20:59;;;;;;;;;8.75;8.75;;;;;;;;5059148;28;45357;-69
2022/02/09 02:28:34;;;;;;;;;6.25;6.25;;;;;;;;5053769;28;45571;-70
2022/02/09 03:13:26;;;;;;;;;6.50;6.25;;;;;;;;5056741;28;45458;-69
2022/02/09 03:16:01;;;;;;;;;6.25;5.25;;;;;;;;5052020;28;45517;-70
2022/02/09 03:21:01;;;;;;;;;10.00;8.00;;;;;;;;5053278;28;45602;-70
2022/02/09 03:26:47;;;;;;;;;8.25;7.00;;;;;;;;5055470;28;45443;-70
2022/02/09 03:51:06;;;;;;;;;5.75;5.75;;;;;;;;5056670;28;45476;-69
2022/02/09 03:53:24;;;;;;;;;9.00;6.50;;;;;;;;5054246;28;45363;-70
2022/02/09 03:58:33;;;;;;;;;9.75;7.50;;;;;;;;5051281;28;45603;-69
2022/02/09 04:00:58;;;;;;;;;7.25;7.00;;;;;;;;5053530;28;45419;-69
2022/02/09 04:03:24;;;;;;;;;10.50;8.75;;;;;;;;5051903;28;45328;-70
2022/02/09 04:05:50;;;;;;;;;8.00;7.25;;;;;;;;5055813;28;45235;-69
2022/02/09 04:08:19;;;;;;;;;9.00;9.00;;;;;;;;5054688;28;45532;-69
2022/02/09 04:11:01;;;;;;;;;8.25;7.25;;;;;;;;5061416;28;45344;-69
2022/02/09 04:13:56;;;;;;;;;12.50;9.50;;;;;;;;5059571;28;45544;-70
2022/02/09 04:38:02;;;;;;;;;9.50;7.00;;;;;;;;5024433;28;45570;-70
2022/02/09 04:51:22;;;;;;;;;8.00;7.00;;;;;;;;5031467;28;45455;-70
2022/02/09 04:56:11;;;;;;;;;5.50;5.50;;;;;;;;5027518;28;45333;-69
2022/02/09 04:58:49;;;;;;;;;8.75;7.50;;;;;;;;5027726;28;45519;-70
2022/02/09 05:25:51;;;;;;;;;8.75;7.00;;;;;;;;4939912;28;46013;-70
2022/02/09 05:28:19;;;;;;;;;5.75;5.75;;;;;;;;4939655;28;45351;-69
2022/02/09 05:30:46;;;;;;;;;6.00;5.25;;;;;;;;4935776;28;45542;-69
2022/02/09 05:33:12;;;;;;;;;4.25;4.25;;;;;;;;4937014;28;45590;-70
2022/02/09 05:35:37;;;;;;;;;5.00;5.00;;;;;;;;4938519;28;45443;-69
2022/02/09 05:38:02;;;;;;;;;8.50;6.00;;;;;;;;4940739;28;45446;-70
2022/02/09 05:40:29;;;;;;;;;5.00;5.00;;;;;;;;4955715;28;45499;-69
2022/02/09 05:42:54;;;;;;;;;8.75;7.75;;;;;;;;4973163;28;45669;-69
2022/02/09 05:45:23;;;;;;;;;7.50;7.00;;;;;;;;4972507;28;46706;-69
2022/02/09 05:53:15;;;;;;;;;5.50;5.50;;;;;;;;4904237;28;45367;-69
2022/02/09 05:59:04;;;;;;;;;8.25;8.25;;;;;;;;4899726;28;46054;-69
2022/02/09 06:00:54;;;;;;;;;5.50;5.50;;;;;;;;4900157;28;45378;-69
2022/02/09 06:03:20;;;;;;;;;6.50;6.00;;;;;;;;4962382;28;45306;-69
2022/02/09 06:05:45;;;;;;;;;8.50;7.75;;;;;;;;4974299;28;45632;-70
2022/02/09 06:08:10;;;;;;;;;7.00;6.00;;;;;;;;4974544;28;45831;-70
2022/02/09 06:10:36;;;;;;;;;6.75;6.75;;;;;;;;4973750;28;45401;-69
2022/02/09 06:15:59;;;;;;;;;5.75;5.75;;;;;;;;4976012;28;46166;-69
2022/02/09 06:21:02;;;;;;;;;6.75;6.50;;;;;;;;4975485;28;45484;-69
2022/02/09 06:23:29;;;;;;;;;8.00;7.00;;;;;;;;4973893;28;45503;-69
2022/02/09 06:25:54;;;;;;;;;5.25;5.25;;;;;;;;4973397;28;45785;-70
2022/02/09 06:28:19;;;;;;;;;7.00;7.00;;;;;;;;5040878;28;45526;-69
2022/02/09 06:30:44;;;;;;;;;6.75;6.75;;;;;;;;5054177;28;45365;-69
2022/02/09 06:33:10;;;;;;;;;8.50;8.00;;;;;;;;5054002;28;45697;-70
2022/02/09 06:35:35;;;;;;;;;6.25;4.75;;;;;;;;5055713;28;45385;-69
2022/02/09 06:38:02;;;;;;;;;6.00;6.00;;;;;;;;5062931;28;45489;-70
2022/02/09 06:40:28;;;;;;;;;7.75;7.00;;;;;;;;5059371;28;45524;-70
2022/02/09 06:42:53;;;;;;;;;8.00;6.50;;;;;;;;5061568;28;45631;-70
2022/02/09 06:45:22;;;;;;;;;9.25;7.25;;;;;;;;5053348;28;46439;-70
2022/02/09 06:47:49;;;;;;;;;8.75;7.75;;;;;;;;5054595;28;45458;-70
2022/02/09 06:50:39;;;;;;;;;8.25;7.00;;;;;;;;5054884;28;45299;-70
2022/02/09 06:53:12;;;;;;;;;5.75;5.75;;;;;;;;5059272;28;45342;-70
2022/02/09 06:55:45;;;;;;;;;8.75;6.00;;;;;;;;5055091;28;46199;-70
2022/02/09 06:58:18;;;;;;;;;7.25;6.25;;;;;;;;5055295;28;45454;-70
2022/02/09 07:00:43;;;;;;;;;6.00;6.00;;;;;;;;5053360;28;45395;-70
2022/02/09 07:03:08;;;;;;;;;6.25;6.25;;;;;;;;5068158;28;45473;-70
2022/02/09 07:05:34;;;;;;;;;8.25;7.00;;;;;;;;5055331;28;45437;-70
2022/02/09 07:07:59;;;;;;;;;6.00;6.00;;;;;;;;5056729;28;45454;-70
2022/02/09 07:10:24;;;;;;;;;7.25;6.00;;;;;;;;5058362;28;45406;-70
2022/02/09 07:12:49;;;;;;;;;7.50;6.00;;;;;;;;5052221;28;45396;-69
2022/02/09 07:15:22;;;;;;;;;2.25;2.25;;;;;;;;5051850;28;46151;-70
2022/02/09 07:17:48;;;;;;;;;5.75;5.00;;;;;;;;5054626;28;45602;-70
2022/02/09 07:20:20;;;;;;;;;7.00;6.25;;;;;;;;5056169;28;45450;-72
2022/02/09 07:22:49;;;;;;;;;8.50;6.00;;;;;;;;5057640;28;45511;-71
2022/02/09 07:25:17;;;;;;;;;7.25;6.25;;;;;;;;5061570;28;45610;-72
2022/02/09 07:27:53;;;;;;;;;7.00;6.25;;;;;;;;5054675;28;45373;-71
2022/02/09 07:30:22;;;;;;;;;5.00;5.00;;;;;;;;5053844;28;45303;-70
2022/02/09 07:32:47;;;;;;;;;8.25;6.25;;;;;;;;5053730;28;45361;-71
2022/02/09 07:35:12;;;;;;;;;7.50;7.50;;;;;;;;5055036;28;45487;-72
2022/02/09 07:37:38;;;;;;;;;5.75;5.75;;;;;;;;5053657;28;45565;-72
2022/02/09 07:40:05;;;;;;;;;7.00;6.00;;;;;;;;5052876;28;45404;-72
2022/02/09 07:42:32;;;;;;;;;7.75;7.25;;;;;;;;5052122;28;45285;-72
2022/02/09 07:45:28;;;;;;;;;6.25;6.25;;;;;;;;5047659;28;46590;-71
2022/02/09 07:53:05;;;;;;;;;7.00;5.00;;;;;;;;5049677;28;45465;-72
2022/02/09 07:55:30;;;;;;;;;6.50;6.50;;;;;;;;5051095;28;47191;-72
2022/02/09 07:57:56;;;;;;;;;6.50;5.50;;;;;;;;5051724;28;45433;-72
2022/02/09 08:00:21;;;;;;;;;6.75;5.25;;;;;;;;5053952;28;45462;-72
2022/02/09 08:02:49;;;;;;;;;8.00;5.25;;;;;;;;5053813;28;45355;-73
2022/02/09 08:05:14;;;;;;;;;5.00;5.00;;;;;;;;5048098;28;46520;-69
2022/02/09 08:07:39;;;;;;;;;6.00;6.00;;;;;;;;5048869;28;45458;-69
2022/02/09 08:10:14;;;;;;;;;5.75;5.00;;;;;;;;5052844;28;45699;-70
2022/02/09 08:30:02;;;;;;;;;8.50;6.25;;;;;;;;5035484;28;45367;-69
2022/02/09 08:32:35;;;;;;;;;6.75;6.75;;;;;;;;5026850;28;45496;-69
2022/02/09 08:34:34;;;;;;;;;5.50;5.50;;;;;;;;5030283;28;50432;-69
2022/02/09 08:36:59;;;;;;;;;6.25;5.75;;;;;;;;5036701;28;45382;-69
2022/02/09 08:39:24;;;;;;;;;7.00;7.00;;;;;;;;5034871;28;45507;-69
2022/02/09 08:41:50;;;;;;;;;6.25;5.25;;;;;;;;5018274;28;45598;-69
2022/02/09 08:44:15;;;;;;;;;6.00;5.00;;;;;;;;5033377;28;45393;-70
2022/02/09 08:46:42;;;;;;;;;6.50;5.50;;;;;;;;5030158;28;45615;-69
2022/02/09 08:49:08;;;;;;;;;6.50;5.25;;;;;;;;5034589;28;45606;-70
2022/02/09 08:51:34;;;;;;;;;6.00;6.00;;;;;;;;5034718;28;45384;-69
2022/02/09 08:53:59;;;;;;;;;5.00;5.00;;;;;;;;5044884;28;45523;-70
2022/02/09 08:56:26;;;;;;;;;5.25;5.25;;;;;;;;5034678;28;46399;-70
2022/02/09 08:58:51;;;;;;;;;8.00;6.00;;;;;;;;5036132;28;45298;-70
2022/02/09 09:04:04;;;;;;;;;6.50;6.00;;;;;;;;5055899;28;45304;-69
2022/02/09 09:06:31;;;;;;;;;9.25;7.25;;;;;;;;5059696;28;46093;-70
2022/02/09 10:02:34;;;;;;;;;5.50;5.00;;;;;;;;5032764;28;45571;-71
2022/02/09 10:33:14;;;;;;;;;7.50;6.00;;;;;;;;5053315;28;45800;-72
2022/02/09 10:35:53;;;;;;;;;6.00;5.25;;;;;;;;5053336;28;45846;-73
2022/02/09 10:38:34;;;;;;;;;5.75;4.50;;;;;;;;5039116;28;45344;-72
2022/02/09 10:41:27;;;;;;;;;7.00;7.00;;;;;;;;5053020;28;45447;-72
2022/02/09 10:44:13;;;;;;;;;9.75;6.25;;;;;;;;5036586;28;47202;-72
2022/02/09 10:46:45;;;;;;;;;5.75;5.50;;;;;;;;5027509;28;45603;-72
2022/02/09 10:49:10;;;;;;;;;11.50;8.50;;;;;;;;5030151;28;45598;-72
2022/02/09 10:54:22;;;;;;;;;9.00;7.75;;;;;;;;5045965;28;45439;-72
2022/02/09 10:56:49;;;;;;;;;8.00;7.25;;;;;;;;5052423;28;45316;-71
2022/02/09 10:59:16;;;;;;;;;8.25;7.50;;;;;;;;5055913;28;45363;-72
2022/02/09 11:01:42;;;;;;;;;5.50;4.00;;;;;;;;5052201;28;45707;-72
2022/02/09 11:04:08;;;;;;;;;8.50;7.75;;;;;;;;5052003;28;46110;-72
2022/02/09 11:06:35;;;;;;;;;7.00;7.00;;;;;;;;5052084;28;45662;-73
2022/02/09 11:09:01;;;;;;;;;8.00;8.00;;;;;;;;5051330;27;45525;-72
2022/02/09 11:11:27;;;;;;;;;9.00;7.75;;;;;;;;5058644;28;45556;-71
2022/02/09 11:13:53;;;;;;;;;9.75;8.00;;;;;;;;5054475;28;46388;-72
2022/02/09 11:16:18;;;;;;;;;12.50;7.25;;;;;;;;5052835;28;45390;-72
2022/02/09 11:18:48;;;;;;;;;7.75;7.75;;;;;;;;5052228;28;45411;-70
2022/02/09 11:21:14;;;;;;;;;7.50;7.50;;;;;;;;5052179;28;45723;-70
2022/02/09 11:23:40;;;;;;;;;6.50;5.75;;;;;;;;5054278;27;45701;-70
2022/02/09 11:26:26;;;;;;;;;7.50;7.00;;;;;;;;5053116;28;45300;-70
2022/02/09 11:29:10;;;;;;;;;9.75;7.50;;;;;;;;5051368;28;45613;-70
2022/02/09 11:31:55;;;;;;;;;8.00;8.00;;;;;;;;5051762;28;46652;-70
2022/02/09 11:34:21;;;;;;;;;5.75;5.75;;;;;;;;5053278;28;45629;-70
2022/02/09 11:36:55;;;;;;;;;8.50;7.00;;;;;;;;5061663;28;45405;-70
2022/02/09 11:39:40;;;;;;;;;7.00;6.00;;;;;;;;5053157;28;45790;-70
2022/02/09 11:42:25;;;;;;;;;7.75;6.75;;;;;;;;5037713;28;45614;-70
2022/02/09 11:45:12;;;;;;;;;7.75;6.75;;;;;;;;5052976;28;46458;-71
2022/02/09 12:12:10;;;;;;;;;7.50;7.50;;;;;;;;4933898;28;45884;-69
2022/02/09 12:22:48;;;;;;;;;9.00;8.00;;;;;;;;4937569;28;45482;-71
2022/02/09 12:25:13;;;;;;;;;6.75;5.50;;;;;;;;4937453;28;45432;-70
2022/02/09 12:27:39;;;;;;;;;10.50;9.00;;;;;;;;4937122;28;47064;-71
2022/02/09 12:30:10;;;;;;;;;9.00;8.25;;;;;;;;4936167;28;45461;-70
2022/02/09 12:32:35;;;;;;;;;7.25;6.00;;;;;;;;4969594;28;45390;-70
2022/02/09 12:35:04;;;;;;;;;7.75;6.50;;;;;;;;4971597;28;45347;-71
2022/02/09 12:37:30;;;;;;;;;5.50;5.00;;;;;;;;4988672;28;45417;-69
2022/02/09 12:39:56;;;;;;;;;10.50;9.50;;;;;;;;4993785;28;45329;-70
2022/02/09 12:42:22;;;;;;;;;9.00;9.00;;;;;;;;5051153;28;45472;-70
2022/02/09 12:44:57;;;;;;;;;7.75;6.75;;;;;;;;5053689;27;45594;-70
2022/02/09 12:47:27;;;;;;;;;8.25;6.75;;;;;;;;5053686;28;46242;-69
2022/02/09 12:49:52;;;;;;;;;6.25;6.25;;;;;;;;5052800;28;45855;-70
2022/02/09 12:52:23;;;;;;;;;7.25;6.50;;;;;;;;5045926;28;45331;-70
2022/02/09 12:54:59;;;;;;;;;8.00;8.00;;;;;;;;5051118;28;45467;-70
2022/02/09 12:57:58;;;;;;;;;8.25;8.00;;;;;;;;5052476;28;45747;-70
2022/02/09 13:00:25;;;;;;;;;9.25;7.25;;;;;;;;4995883;28;45493;-70
2022/02/09 13:02:51;;;;;;;;;9.00;8.25;;;;;;;;5015739;28;45358;-70
2022/02/09 13:05:16;;;;;;;;;9.00;7.00;;;;;;;;5009003;28;45469;-70
2022/02/09 13:07:50;;;;;;;;;9.25;9.00;;;;;;;;5007194;28;46017;-69
2022/02/09 13:10:20;;;;;;;;;7.50;7.50;;;;;;;;5007481;28;46460;-69
2022/02/09 13:12:46;;;;;;;;;7.75;7.75;;;;;;;;5011108;28;45453;-70
2022/02/09 13:15:26;;;;;;;;;9.00;6.50;;;;;;;;5011506;28;45458;-70
2022/02/09 13:18:14;;;;;;;;;9.00;7.50;;;;;;;;5013471;28;45542;-70
2022/02/09 14:58:11;;;;;;;;;9.00;9.00;;;;;;;;5051991;28;45348;-70
2022/02/09 15:00:49;;;;;;;;;9.00;9.00;;;;;;;;5053830;28;45268;-70
2022/02/09 15:03:40;;;;;;;;;9.00;9.00;;;;;;;;5037896;28;45222;-70
2022/02/09 15:11:36;;;;;;;;;9.00;9.00;;;;;;;;5054985;28;45252;-70
2022/02/09 15:14:20;;;;;;;;;11.00;10.00;;;;;;;;5054360;28;45671;-70
2022/02/09 15:22:08;;;;;;;;;12.25;8.00;;;;;;;;5054414;28;45434;-70
2022/02/09 15:24:46;;;;;;;;;9.50;9.50;;;;;;;;5051693;28;45544;-70
2022/02/09 15:27:18;;;;;;;;;9.00;9.00;;;;;;;;5039558;28;47448;-70
2022/02/09 15:29:44;;;;;;;;;8.75;8.25;;;;;;;;5063610;28;45349;-71
2022/02/09 15:32:18;;;;;;;;;10.75;10.75;;;;;;;;5055431;28;45513;-70
2022/02/09 15:34:51;;;;;;;;;10.50;10.50;;;;;;;;5054875;28;45584;-70
2022/02/09 15:39:52;;;;;;;;;9.00;9.00;;;;;;;;5054060;28;45965;-70
2022/02/09 16:09:22;;;;;;;;;10.00;10.00;;;;;;;;5036366;28;45447;-70
2022/02/09 16:22:24;;;;;;;;;13.50;10.75;;;;;;;;5052288;28;45302;-70
2022/02/09 16:46:15;;;;;;;;;12.00;10.75;;;;;;;;5054472;28;45557;-70
2022/02/09 16:51:21;;;;;;;;;13.25;9.25;;;;;;;;5054436;28;46293;-70
2022/02/09 16:54:02;;;;;;;;;12.00;11.50;;;;;;;;5066156;28;45284;-70
2022/02/09 17:08:28;;;;;;;;;12.25;10.75;;;;;;;;5053682;28;45430;-71
2022/02/09 17:20:57;;;;;;;;;11.00;11.00;;;;;;;;5034328;28;46259;-70
2022/02/09 17:23:22;;;;;;;;;13.00;10.00;;;;;;;;5034918;28;46160;-70
2022/02/09 17:25:47;;;;;;;;;11.00;11.00;;;;;;;;5033832;28;45387;-70
2022/02/09 17:28:15;;;;;;;;;11.00;11.00;;;;;;;;5030552;28;45312;-70
2022/02/09 17:33:31;;;;;;;;;10.25;9.50;;;;;;;;5035284;28;46000;-70
2022/02/09 17:57:21;;;;;;;;;11.00;11.00;;;;;;;;5036687;28;45522;-68
2022/02/09 17:59:57;;;;;;;;;12.00;11.25;;;;;;;;5055655;28;45895;-68
2022/02/09 18:02:22;;;;;;;;;12.25;11.50;;;;;;;;5057384;28;45487;-68
2022/02/09 18:04:47;;;;;;;;;14.50;12.75;;;;;;;;5054459;28;45272;-68
2022/02/09 18:07:17;;;;;;;;;11.75;10.25;;;;;;;;5051924;28;45394;-68
2022/02/09 18:09:46;;;;;;;;;13.00;11.75;;;;;;;;5053340;28;45572;-69
2022/02/09 18:12:50;;;;;;;;;13.50;12.00;;;;;;;;5062587;28;45628;-68
2022/02/09 18:15:23;;;;;;;;;11.75;10.25;;;;;;;;5036327;28;45479;-69
2022/02/09 18:28:57;;;;;;;;;10.50;10.50;;;;;;;;5051867;28;45428;-68
2022/02/09 18:33:52;;;;;;;;;13.00;10.50;;;;;;;;5054593;28;46122;-68
2022/02/09 18:39:52;;;;;;;;;12.75;10.75;;;;;;;;5053176;28;46226;-68
2022/02/09 18:44:32;;;;;;;;;11.50;11.25;;;;;;;;5054429;28;45428;-68
2022/02/09 19:02:59;;;;;;;;;12.00;10.75;;;;;;;;5053387;28;45434;-69
2022/02/09 19:05:40;;;;;;;;;15.75;11.25;;;;;;;;5055714;28;45478;-68
2022/02/09 19:27:13;;;;;;;;;11.00;10.25;;;;;;;;5037679;28;45487;-69
2022/02/09 19:40:41;;;;;;;;;9.50;9.50;;;;;;;;5048211;28;45324;-68
2022/02/09 19:48:19;;;;;;;;;10.25;10.00;;;;;;;;5063382;28;45516;-68
2022/02/09 19:53:45;;;;;;;;;10.00;8.75;;;;;;;;5064002;28;45354;-68
2022/02/09 19:56:16;;;;;;;;;13.50;11.25;;;;;;;;5054164;28;45386;-69
2022/02/09 19:58:46;;;;;;;;;12.00;10.00;;;;;;;;5051336;28;45580;-67
2022/02/09 20:01:15;;;;;;;;;11.25;11.00;;;;;;;;5051933;28;45471;-68
2022/02/09 20:03:41;;;;;;;;;12.00;11.00;;;;;;;;5052413;28;45493;-68
2022/02/09 20:06:07;;;;;;;;;11.75;11.00;;;;;;;;5053270;28;45295;-68
2022/02/09 20:08:35;;;;;;;;;8.25;8.00;;;;;;;;5055132;28;45682;-68
2022/02/09 20:11:01;;;;;;;;;11.50;10.25;;;;;;;;5055560;28;47151;-68
2022/02/09 20:13:26;;;;;;;;;12.25;11.25;;;;;;;;5057575;28;45422;-68
2022/02/09 20:15:51;;;;;;;;;12.50;12.50;;;;;;;;5056810;28;45835;-67
2022/02/09 20:18:16;;;;;;;;;12.00;12.00;;;;;;;;5053609;28;45327;-68
2022/02/09 20:20:42;;;;;;;;;11.25;11.25;;;;;;;;5057427;28;46704;-68
2022/02/09 20:23:10;;;;;;;;;11.00;10.75;;;;;;;;5056754;28;45430;-68
2022/02/09 20:25:35;;;;;;;;;9.75;9.75;;;;;;;;5054136;28;45358;-68
2022/02/09 20:28:00;;;;;;;;;7.75;6.75;;;;;;;;5054366;28;45346;-69
2022/02/09 20:30:33;;;;;;;;;11.00;10.00;;;;;;;;5054789;28;46056;-69
2022/02/09 20:33:02;;;;;;;;;16.75;13.50;;;;;;;;5056020;28;45353;-69
2022/02/09 20:35:28;;;;;;;;;12.25;12.00;;;;;;;;5057671;28;45472;-69
2022/02/09 20:37:55;;;;;;;;;10.00;10.00;;;;;;;;5058651;28;45379;-69
2022/02/09 20:40:26;;;;;;;;;13.50;10.75;;;;;;;;5054311;28;46310;-69
2022/02/09 20:43:00;;;;;;;;;8.75;8.75;;;;;;;;5059624;28;45368;-69
2022/02/09 20:45:31;;;;;;;;;12.50;9.50;;;;;;;;5057753;28;45440;-68
2022/02/09 20:48:06;;;;;;;;;13.50;12.50;;;;;;;;5057438;28;45478;-68
2022/02/09 20:50:32;;;;;;;;;12.75;12.75;;;;;;;;5052731;28;47760;-69
2022/02/09 20:52:58;;;;;;;;;10.75;10.50;;;;;;;;5058252;28;45572;-68
2022/02/09 20:55:23;;;;;;;;;13.00;11.75;;;;;;;;5058699;28;45465;-68
2022/02/09 20:57:50;;;;;;;;;15.25;13.00;;;;;;;;5056808;28;45537;-68
2022/02/09 21:00:23;;;;;;;;;16.50;14.75;;;;;;;;5053986;28;45651;-69
2022/02/09 21:56:20;;;;;;;;;15.25;11.00;;;;;;;;5017689;28;45457;-70
2022/02/09 22:20:16;;;;;;;;;12.25;12.25;;;;;;;;5016760;28;45354;-70
2022/02/09 22:22:55;;;;;;;;;13.00;13.00;;;;;;;;5040333;28;45630;-69
2022/02/09 22:27:54;;;;;;;;;12.00;11.00;;;;;;;;5052982;28;45549;-72
2022/02/09 22:56:49;;;;;;;;;12.50;12.50;;;;;;;;5013365;28;45576;-71
2022/02/09 22:59:26;;;;;;;;;13.75;13.75;;;;;;;;5013632;28;45395;-72
2022/02/09 23:01:56;;;;;;;;;11.50;11.50;;;;;;;;5013646;28;45377;-72
2022/02/09 23:14:46;;;;;;;;;14.75;14.00;;;;;;;;5035601;28;45309;-71
